Time;durP1;ratioP1;P1;durP2;ratioP2;P2;SDS_P1;SDS_P2;PMS_P1;PMS_P2;Temp;Humidity;BMP_temperature;BMP_pressure;BME280_temperature;BME280_humidity;BME280_pressure;Samples;Min_cycle;Max_cycle;Signal;HPM_P1;HPM_P2
2022/04/07 00:01:09;;;;;;;10.55;2.28;;;;;;;15.82;40.08;97679.88;5054552;28;20033;-83
2022/04/07 00:03:34;;;;;;;12.82;2.97;;;;;;;15.63;40.52;97689.63;5054479;28;20024;-81
2022/04/07 00:06:01;;;;;;;11.98;2.45;;;;;;;16.08;39.79;97678.97;5055598;28;20017;-82
2022/04/07 00:08:28;;;;;;;12.68;2.42;;;;;;;15.80;39.94;97691.31;5054202;28;20479;-80
2022/04/07 00:10:54;;;;;;;14.68;2.70;;;;;;;15.89;39.66;97679.75;5055575;28;20024;-81
2022/04/07 00:13:20;;;;;;;9.35;3.42;;;;;;;15.70;40.21;97727.28;5053861;28;20068;-81
2022/04/07 00:15:45;;;;;;;12.82;3.05;;;;;;;16.18;39.29;97695.72;5053870;28;20478;-88
2022/04/07 00:18:11;;;;;;;11.93;3.10;;;;;;;15.59;40.60;97701.88;5053498;28;20037;-82
2022/04/07 00:20:37;;;;;;;13.23;3.17;;;;;;;15.74;40.13;97705.97;5053505;28;20032;-81
2022/04/07 00:23:03;;;;;;;8.95;2.47;;;;;;;15.86;39.67;97680.56;5055468;28;20033;-81
2022/04/07 00:25:30;;;;;;;8.63;3.08;;;;;;;15.83;39.94;97673.16;5055351;28;20032;-81
2022/04/07 00:27:56;;;;;;;9.80;2.40;;;;;;;15.92;39.69;97678.88;5053973;28;20024;-81
2022/04/07 00:30:22;;;;;;;10.75;2.10;;;;;;;15.82;39.80;97688.91;5055303;28;20114;-84
2022/04/07 00:32:49;;;;;;;12.07;3.80;;;;;;;15.91;39.97;97687.56;5055255;28;20033;-81
2022/04/07 00:35:16;;;;;;;14.82;2.50;;;;;;;16.02;39.37;97697.19;5055073;28;20082;-80
2022/04/07 00:37:42;;;;;;;11.07;2.90;;;;;;;15.94;39.65;97695.75;5055241;28;20395;-85
2022/04/07 00:40:10;;;;;;;7.57;1.85;;;;;;;14.98;42.23;97700.13;5055274;28;20037;-81
2022/04/07 00:42:51;;;;;;;15.88;3.33;;;;;;;15.67;41.51;97704.13;5054558;28;20102;-81
2022/04/07 00:45:20;;;;;;;9.15;2.50;;;;;;;15.14;42.99;97700.25;5053617;28;20059;-81
2022/04/07 00:47:46;;;;;;;4.38;1.40;;;;;;;14.95;43.70;97712.72;5053610;28;20043;-81
2022/04/07 00:50:13;;;;;;;4.95;1.50;;;;;;;15.36;42.85;97717.19;5054874;28;20029;-81
2022/04/07 00:52:45;;;;;;;7.70;1.63;;;;;;;14.93;43.55;97715.09;5054851;28;20033;-88
2022/04/07 00:55:12;;;;;;;5.00;1.02;;;;;;;14.81;44.21;97743.16;5053413;28;20368;-80
2022/04/07 00:57:39;;;;;;;5.20;1.48;;;;;;;15.18;43.25;97746.94;5053303;28;20032;-83
2022/04/07 01:00:08;;;;;;;6.60;1.45;;;;;;;15.31;42.24;97763.66;5054565;28;20389;-82
2022/04/07 01:02:35;;;;;;;2.28;0.90;;;;;;;15.15;42.80;97753.28;5054521;28;20368;-81
2022/04/07 01:05:02;;;;;;;8.23;2.17;;;;;;;15.09;43.04;97776.94;5054438;28;20029;-81
2022/04/07 01:07:28;;;;;;;4.95;1.40;;;;;;;15.26;43.13;97771.19;5054677;28;20025;-81
2022/04/07 01:09:53;;;;;;;5.43;1.63;;;;;;;15.18;43.63;97771.69;5053179;28;20028;-81
2022/04/07 01:12:19;;;;;;;8.43;1.50;;;;;;;15.14;44.13;97777.25;5053117;28;20510;-81
2022/04/07 01:15:02;;;;;;;11.48;1.95;;;;;;;15.21;43.67;97774.41;5054415;28;20102;-80
2022/04/07 01:17:28;;;;;;;7.88;1.98;;;;;;;14.63;45.14;97761.84;5053037;28;20467;-87
2022/04/07 01:19:54;;;;;;;6.82;2.05;;;;;;;14.63;45.00;97750.84;5052991;28;20025;-85
2022/04/07 01:22:21;;;;;;;8.32;1.98;;;;;;;15.10;44.13;97770.25;5054184;28;20025;-80
2022/04/07 01:24:49;;;;;;;5.30;1.40;;;;;;;15.03;44.35;97759.34;5054301;28;20040;-86
2022/04/07 01:27:17;;;;;;;6.00;1.30;;;;;;;15.18;43.83;97766.19;5053073;28;20021;-81
2022/04/07 01:29:43;;;;;;;8.30;1.67;;;;;;;15.16;43.97;97776.84;5052666;28;20025;-81
2022/04/07 01:32:26;;;;;;;6.47;2.25;;;;;;;14.74;45.31;97762.50;5052913;28;20075;-81
2022/04/07 01:34:52;;;;;;;7.78;1.70;;;;;;;15.00;44.23;97741.72;5052866;28;20027;-81
2022/04/07 01:37:19;;;;;;;3.53;2.03;;;;;;;14.38;45.77;97762.91;5052936;28;20032;-81
2022/04/07 01:39:48;;;;;;;8.48;1.88;;;;;;;15.16;43.98;97752.09;5052588;28;20483;-81
2022/04/07 01:42:14;;;;;;;8.60;2.22;;;;;;;14.95;44.49;97755.91;5053848;28;20041;-82
2022/04/07 01:44:49;;;;;;;7.82;1.75;;;;;;;14.97;44.21;97768.06;5052485;28;20479;-87
2022/04/07 01:47:20;;;;;;;8.13;2.33;;;;;;;14.57;44.92;97736.00;5052558;28;20467;-85
2022/04/07 01:49:51;;;;;;;7.50;1.30;;;;;;;14.76;44.51;97771.09;5053848;28;20017;-86
2022/04/07 01:52:17;;;;;;;5.85;1.52;;;;;;;14.75;44.52;97755.81;5053737;28;20430;-82
2022/04/07 01:54:43;;;;;;;4.65;1.40;;;;;;;14.95;44.11;97764.94;5053881;28;20526;-82
2022/04/07 01:57:13;;;;;;;7.15;1.77;;;;;;;15.25;43.94;97758.63;5053485;28;20078;-82
2022/04/07 01:59:39;;;;;;;12.85;2.45;;;;;;;15.21;43.43;97768.13;5053529;28;20078;-81
2022/04/07 02:02:04;;;;;;;7.65;1.70;;;;;;;15.35;43.29;97770.66;5053603;28;20479;-81
2022/04/07 02:04:30;;;;;;;7.95;2.08;;;;;;;15.43;43.30;97774.09;5052131;28;20025;-81
2022/04/07 02:06:55;;;;;;;7.80;2.15;;;;;;;15.26;43.76;97775.91;5052587;28;20159;-86
2022/04/07 02:09:21;;;;;;;12.48;3.80;;;;;;;15.14;44.01;97779.22;5053480;28;20048;-81
2022/04/07 02:11:47;;;;;;;8.65;1.95;;;;;;;15.20;43.95;97780.34;5052159;28;20071;-81
2022/04/07 02:14:13;;;;;;;10.07;1.73;;;;;;;15.45;43.39;97775.22;5051953;28;20106;-81
2022/04/07 02:16:38;;;;;;;6.15;2.13;;;;;;;14.98;44.70;97780.63;5052221;28;20487;-80
2022/04/07 02:19:04;;;;;;;5.40;1.52;;;;;;;14.98;44.65;97801.84;5051825;28;20127;-85
2022/04/07 02:21:30;;;;;;;8.57;1.50;;;;;;;14.71;44.47;97793.53;5052016;28;20025;-85
2022/04/07 02:23:56;;;;;;;8.15;2.53;;;;;;;15.18;43.69;97802.72;5052028;28;20036;-82
2022/04/07 02:26:22;;;;;;;5.40;2.63;;;;;;;14.86;44.51;97807.88;5052158;28;20030;-82
2022/04/07 02:28:47;;;;;;;7.72;2.08;;;;;;;15.25;43.35;97812.84;5053184;28;20033;-80
2022/04/07 02:31:13;;;;;;;9.43;2.40;;;;;;;14.87;44.54;97812.19;5051767;28;20083;-81
2022/04/07 02:33:39;;;;;;;10.68;2.25;;;;;;;15.21;43.85;97821.16;5051795;28;20037;-86
2022/04/07 02:36:07;;;;;;;11.05;2.38;;;;;;;15.21;44.04;97825.88;5051834;28;20021;-86
2022/04/07 02:38:34;;;;;;;8.00;1.95;;;;;;;15.18;44.14;97834.94;5051881;28;20108;-81
2022/04/07 02:40:59;;;;;;;7.60;2.42;;;;;;;15.48;43.55;97814.88;5051634;28;20041;-81
2022/04/07 02:43:25;;;;;;;7.82;1.88;;;;;;;14.76;45.52;97845.31;5052075;28;20048;-81
2022/04/07 02:45:51;;;;;;;5.97;1.73;;;;;;;15.30;43.89;97853.66;5051688;28;20029;-86
2022/04/07 02:48:17;;;;;;;7.65;2.03;;;;;;;15.10;44.53;97852.75;5052842;28;20028;-81
2022/04/07 02:50:43;;;;;;;4.20;1.48;;;;;;;15.04;44.79;97868.13;5051696;28;20025;-87
2022/04/07 02:53:09;;;;;;;8.13;2.42;;;;;;;14.78;45.30;97864.13;5051684;28;20025;-81
2022/04/07 02:55:35;;;;;;;7.63;1.88;;;;;;;14.78;45.42;97864.91;5052942;28;20032;-80
2022/04/07 02:58:01;;;;;;;8.88;1.85;;;;;;;15.14;44.51;97876.28;5051536;28;20480;-87
2022/04/07 03:00:26;;;;;;;6.05;1.45;;;;;;;15.19;44.31;97881.31;5051657;28;20041;-81
2022/04/07 03:02:52;;;;;;;8.88;1.63;;;;;;;14.88;45.11;97883.25;5052666;28;20033;-81
2022/04/07 03:05:18;;;;;;;4.68;1.23;;;;;;;14.99;44.71;97903.16;5051280;28;20037;-80
2022/04/07 03:07:43;;;;;;;9.05;2.13;;;;;;;15.03;45.00;97888.56;5051538;28;20068;-81
2022/04/07 03:10:10;;;;;;;9.98;1.75;;;;;;;15.35;44.07;97897.22;5051197;28;20025;-81
2022/04/07 03:12:36;;;;;;;3.33;1.48;;;;;;;14.90;45.09;97886.38;5051448;28;20070;-87
2022/04/07 03:15:02;;;;;;;5.63;1.30;;;;;;;15.37;43.83;97883.03;5051491;28;20031;-89
2022/04/07 03:17:28;;;;;;;7.28;1.58;;;;;;;15.37;44.07;97903.09;5052620;28;20502;-81
2022/04/07 03:19:53;;;;;;;4.03;1.23;;;;;;;14.81;45.08;97880.59;5051215;28;20033;-81
2022/04/07 03:22:19;;;;;;;7.03;1.30;;;;;;;15.24;44.10;97911.09;5052400;28;20032;-81
2022/04/07 03:24:47;;;;;;;5.28;1.30;;;;;;;15.41;43.91;97919.53;5052385;28;20111;-81
2022/04/07 03:27:13;;;;;;;4.45;1.30;;;;;;;15.19;44.17;97910.78;5052682;28;20459;-81
2022/04/07 03:29:39;;;;;;;5.40;1.60;;;;;;;15.17;44.28;97921.41;5051293;28;20057;-84
2022/04/07 03:32:05;;;;;;;5.88;1.90;;;;;;;14.79;45.16;97913.19;5051520;28;20032;-80
2022/04/07 03:34:31;;;;;;;6.97;1.52;;;;;;;14.89;44.96;97922.53;5052327;28;20426;-81
2022/04/07 03:36:57;;;;;;;8.38;1.92;;;;;;;15.29;43.77;97933.84;5051082;28;20032;-81
2022/04/07 03:39:22;;;;;;;8.73;2.05;;;;;;;15.37;43.62;97930.59;5052349;28;20387;-81
2022/04/07 03:41:48;;;;;;;14.55;2.70;;;;;;;15.10;44.30;97938.78;5051291;28;20056;-83
2022/04/07 03:44:14;;;;;;;5.55;2.00;;;;;;;15.59;43.51;97941.31;5051179;28;20032;-81
2022/04/07 03:46:39;;;;;;;13.63;3.28;;;;;;;15.52;43.26;97953.97;5051109;28;20154;-81
2022/04/07 03:49:05;;;;;;;6.75;2.45;;;;;;;15.57;43.29;97943.69;5050940;28;20044;-81
2022/04/07 03:51:31;;;;;;;12.23;2.88;;;;;;;15.62;43.16;97960.56;5052358;28;20087;-81
2022/04/07 03:53:57;;;;;;;10.98;2.67;;;;;;;15.65;43.43;97950.72;5052729;28;20472;-90
2022/04/07 03:56:22;;;;;;;13.05;3.08;;;;;;;15.77;43.05;97961.13;5054879;28;20029;-80
2022/04/07 03:58:48;;;;;;;13.25;2.55;;;;;;;15.60;43.58;97962.91;5055723;28;20037;-81
2022/04/07 04:01:14;;;;;;;11.57;2.60;;;;;;;15.18;44.44;97958.72;5055974;28;20029;-81
2022/04/07 04:03:39;;;;;;;12.40;2.78;;;;;;;15.47;43.57;97970.16;5054572;28;20195;-81
2022/04/07 04:06:05;;;;;;;15.30;3.03;;;;;;;15.48;43.73;97972.50;5054450;28;20021;-86
2022/04/07 04:08:31;;;;;;;12.90;3.33;;;;;;;15.48;43.86;97968.97;5054399;28;20360;-81
2022/04/07 04:10:57;;;;;;;11.40;2.75;;;;;;;15.14;44.69;97978.03;5055669;28;20464;-80
2022/04/07 04:13:23;;;;;;;16.38;3.65;;;;;;;15.32;44.14;97966.81;5041656;28;20091;-81
2022/04/07 04:15:48;;;;;;;14.90;3.53;;;;;;;15.63;43.49;97980.59;5034431;28;20079;-80
2022/04/07 04:18:14;;;;;;;12.77;3.67;;;;;;;15.08;44.90;97978.88;5034036;28;20095;-81
2022/04/07 04:20:40;;;;;;;14.02;3.00;;;;;;;15.15;44.60;97982.34;5035662;28;20025;-87
2022/04/07 04:23:06;;;;;;;22.60;6.10;;;;;;;15.65;43.62;97990.03;5034326;28;20509;-81
2022/04/07 04:25:31;;;;;;;14.90;3.80;;;;;;;15.80;43.43;97990.63;5034263;28;20033;-80
2022/04/07 04:27:57;;;;;;;15.75;3.33;;;;;;;16.01;42.97;98000.53;5034060;28;20025;-81
2022/04/07 04:30:23;;;;;;;14.45;3.10;;;;;;;15.43;43.76;97994.97;5035346;28;20061;-80
2022/04/07 04:32:49;;;;;;;21.30;3.78;;;;;;;15.92;43.08;98005.78;5034002;28;20507;-81
2022/04/07 04:35:14;;;;;;;14.38;3.22;;;;;;;15.58;43.78;98014.06;5035499;28;20026;-80
2022/04/07 04:37:40;;;;;;;10.85;3.22;;;;;;;15.04;45.11;98008.38;5035140;28;20033;-82
2022/04/07 04:40:06;;;;;;;11.98;2.33;;;;;;;15.77;43.41;98021.72;5033885;28;20033;-86
2022/04/07 04:42:32;;;;;;;11.48;2.75;;;;;;;15.53;44.30;98020.81;5033670;28;20056;-81
2022/04/07 04:44:57;;;;;;;14.88;3.38;;;;;;;15.64;44.07;98028.94;5033684;28;20042;-85
2022/04/07 04:47:23;;;;;;;12.63;2.92;;;;;;;14.92;45.65;98048.94;5033790;28;20388;-81
2022/04/07 04:49:49;;;;;;;12.45;3.17;;;;;;;15.58;44.09;98039.63;5033941;28;20079;-80
2022/04/07 04:52:15;;;;;;;12.55;2.30;;;;;;;15.80;43.47;98051.97;5033796;28;20116;-80
2022/04/07 04:54:41;;;;;;;14.00;3.75;;;;;;;16.00;43.04;98060.34;5034940;28;20029;-81
2022/04/07 04:57:08;;;;;;;10.52;2.38;;;;;;;15.66;43.97;98062.38;5034645;28;20034;-80
2022/04/07 04:59:34;;;;;;;7.25;2.50;;;;;;;15.40;44.40;98066.53;5033588;28;20025;-86
2022/04/07 05:02:00;;;;;;;9.43;1.85;;;;;;;15.21;44.88;98087.19;5034832;28;20079;-80
2022/04/07 05:04:25;;;;;;;8.90;1.50;;;;;;;15.54;43.69;98083.69;5033056;28;20388;-80
2022/04/07 05:06:51;;;;;;;3.35;1.35;;;;;;;15.44;44.07;98083.81;5033134;28;20022;-80
2022/04/07 05:09:17;;;;;;;8.52;1.33;;;;;;;14.96;45.05;98101.97;5034920;28;20071;-86
2022/04/07 05:11:42;;;;;;;8.10;1.15;;;;;;;15.29;44.10;98110.69;5034896;28;20033;-88
2022/04/07 05:14:08;;;;;;;2.05;0.70;;;;;;;14.64;45.61;98126.13;5033413;28;20120;-80
2022/04/07 05:16:34;;;;;;;1.42;0.70;;;;;;;14.76;44.74;98117.44;5033415;28;20079;-85
2022/04/07 05:18:59;;;;;;;5.22;0.90;;;;;;;14.86;44.40;98129.53;5034513;28;20041;-81
2022/04/07 05:21:25;;;;;;;1.70;0.50;;;;;;;15.07;43.73;98136.81;5033137;28;20025;-80
2022/04/07 05:23:51;;;;;;;4.03;0.60;;;;;;;15.16;43.21;98156.38;5033214;28;20496;-80
2022/04/07 05:26:16;;;;;;;9.93;1.42;;;;;;;15.16;43.14;98151.66;5034327;28;20464;-80
2022/04/07 05:28:42;;;;;;;1.25;0.50;;;;;;;14.78;43.89;98163.75;5034270;28;20033;-80
2022/04/07 05:31:08;;;;;;;2.95;0.98;;;;;;;14.89;43.49;98158.97;5032857;28;20040;-80
2022/04/07 05:33:34;;;;;;;3.05;0.57;;;;;;;15.14;42.66;98153.25;5033064;28;20025;-80
2022/04/07 05:35:59;;;;;;;2.53;0.60;;;;;;;15.07;43.27;98150.56;5034365;28;20052;-87
2022/04/07 05:38:25;;;;;;;5.40;1.20;;;;;;;15.23;43.18;98161.81;5032681;28;20501;-80
2022/04/07 05:40:51;;;;;;;3.08;1.20;;;;;;;15.09;43.21;98157.22;5033802;28;20030;-81
2022/04/07 05:43:16;;;;;;;3.35;0.68;;;;;;;14.51;44.57;98147.84;5034267;28;20503;-81
2022/04/07 05:45:45;;;;;;;4.32;1.65;;;;;;;14.30;45.05;98156.16;5034161;28;20073;-80
2022/04/07 05:48:11;;;;;;;6.15;1.23;;;;;;;14.66;44.35;98154.00;5032872;28;20033;-81
2022/04/07 05:50:37;;;;;;;6.55;1.55;;;;;;;14.42;45.13;98148.22;5032734;28;20057;-88
2022/04/07 05:53:02;;;;;;;6.97;1.35;;;;;;;14.22;45.82;98154.63;5032664;28;20052;-87
2022/04/07 05:55:28;;;;;;;8.70;1.80;;;;;;;14.42;44.92;98159.22;5033854;28;20083;-81
2022/04/07 05:57:54;;;;;;;9.90;2.45;;;;;;;14.04;46.01;98157.44;5033733;28;20469;-80
2022/04/07 06:00:20;;;;;;;7.80;1.80;;;;;;;14.47;45.07;98176.50;5033945;28;20030;-83
2022/04/07 06:02:47;;;;;;;6.78;1.73;;;;;;;14.64;44.83;98164.63;5032676;28;20036;-82
2022/04/07 06:05:18;;;;;;;8.93;2.75;;;;;;;14.41;45.14;98173.34;5033852;28;20350;-86
2022/04/07 06:07:44;;;;;;;5.72;1.63;;;;;;;14.67;44.56;98172.06;5033982;28;20026;-80
2022/04/07 06:10:10;;;;;;;10.35;2.45;;;;;;;14.56;44.48;98194.09;5033520;28;20029;-82
2022/04/07 06:12:38;;;;;;;11.32;2.55;;;;;;;14.53;44.32;98177.66;5032359;28;20055;-80
2022/04/07 06:15:04;;;;;;;8.52;2.25;;;;;;;14.82;43.87;98190.03;5032255;28;20037;-80
2022/04/07 06:17:34;;;;;;;7.90;1.95;;;;;;;14.83;43.23;98182.56;5032893;28;20033;-80
2022/04/07 06:20:00;;;;;;;8.30;2.13;;;;;;;14.87;43.16;98194.31;5031839;28;20029;-79
2022/04/07 06:22:26;;;;;;;8.55;1.60;;;;;;;14.85;43.41;98188.44;5031720;28;20504;-84
2022/04/07 06:24:51;;;;;;;11.30;2.22;;;;;;;14.42;43.84;98181.19;5033483;28;20404;-79
2022/04/07 06:27:17;;;;;;;6.65;1.70;;;;;;;14.61;43.44;98192.91;5033572;28;20231;-80
2022/04/07 06:29:42;;;;;;;11.30;2.42;;;;;;;14.71;43.09;98195.59;5032336;28;20032;-87
2022/04/07 06:32:08;;;;;;;11.23;2.45;;;;;;;14.92;43.08;98199.38;5032372;28;20029;-81
2022/04/07 06:34:34;;;;;;;9.45;2.00;;;;;;;15.10;42.73;98213.78;5032163;28;20079;-80
2022/04/07 06:37:00;;;;;;;7.35;1.83;;;;;;;15.02;42.64;98204.03;5030601;28;20428;-88
2022/04/07 06:39:26;;;;;;;12.90;2.42;;;;;;;15.20;42.26;98226.69;5033247;28;20040;-90
2022/04/07 06:41:52;;;;;;;8.25;2.15;;;;;;;15.04;42.56;98211.88;5033626;28;20049;-80
2022/04/07 06:44:19;;;;;;;8.85;2.28;;;;;;;14.73;43.10;98210.88;5033741;28;20395;-80
2022/04/07 06:46:45;;;;;;;12.40;2.40;;;;;;;15.29;41.52;98217.19;5028260;28;20120;-87
2022/04/07 06:49:11;;;;;;;18.27;3.80;;;;;;;15.04;41.61;98201.69;5023760;28;20476;-81
2022/04/07 06:51:37;;;;;;;8.40;1.80;;;;;;;14.77;42.03;98215.19;5027295;28;20033;-79
2022/04/07 06:54:02;;;;;;;8.70;2.47;;;;;;;14.86;41.55;98221.03;5028270;28;20072;-80
2022/04/07 06:56:28;;;;;;;9.63;2.03;;;;;;;15.50;40.21;98250.81;5014609;28;20126;-81
2022/04/07 06:58:54;;;;;;;7.93;2.58;;;;;;;15.33;40.57;98246.22;5013507;28;20037;-91
2022/04/07 07:01:20;;;;;;;9.35;1.83;;;;;;;14.92;41.32;98274.41;5016760;28;20061;-82
2022/04/07 07:03:45;;;;;;;16.77;2.25;;;;;;;15.49;40.52;98268.53;5005956;28;20080;-91
2022/04/07 07:06:11;;;;;;;5.82;3.05;;;;;;;15.60;40.12;98279.44;5017628;28;20758;-84
2022/04/07 07:08:37;;;;;;;9.55;2.10;;;;;;;15.77;39.77;98256.50;5011749;28;20032;-82
2022/04/07 07:11:02;;;;;;;9.85;2.78;;;;;;;15.54;40.11;98294.81;5017836;28;20029;-82
2022/04/07 07:13:28;;;;;;;8.85;1.88;;;;;;;15.73;39.64;98310.06;5016871;28;20164;-83
2022/04/07 07:15:54;;;;;;;9.88;2.30;;;;;;;15.66;40.09;98299.09;4998525;28;20495;-83
2022/04/07 07:18:20;;;;;;;7.07;2.33;;;;;;;15.64;39.89;98280.25;5017555;28;20069;-89
2022/04/07 07:20:46;;;;;;;8.27;1.73;;;;;;;15.58;40.27;98294.81;5016811;28;20080;-83
2022/04/07 07:23:11;;;;;;;11.05;2.25;;;;;;;14.92;41.57;98296.41;5028028;28;20021;-82
2022/04/07 07:25:37;;;;;;;6.72;1.60;;;;;;;15.69;39.65;98301.03;5032081;28;20029;-84
2022/04/07 07:28:04;;;;;;;10.75;2.30;;;;;;;15.60;40.11;98301.47;5032193;28;20029;-82
2022/04/07 07:30:30;;;;;;;8.82;2.00;;;;;;;15.47;40.40;98325.91;5035987;28;20021;-82
2022/04/07 07:32:56;;;;;;;9.90;2.45;;;;;;;15.39;40.13;98335.41;5034434;28;20021;-91
2022/04/07 07:35:23;;;;;;;9.05;1.88;;;;;;;15.62;39.83;98323.88;5035060;28;20025;-82
2022/04/07 07:37:56;;;;;;;9.82;2.78;;;;;;;15.82;39.63;98348.91;5036286;28;20025;-85
2022/04/07 07:40:24;;;;;;;7.75;1.83;;;;;;;15.73;39.17;98349.38;5036512;28;20025;-81
2022/04/07 07:42:53;;;;;;;3.45;1.17;;;;;;;15.93;39.01;98352.34;5033270;28;20037;-81
2022/04/07 07:45:18;;;;;;;5.63;1.33;;;;;;;16.06;38.75;98361.69;5033273;28;20132;-82
2022/04/07 07:47:44;;;;;;;11.48;1.75;;;;;;;15.92;38.77;98366.53;5033113;28;20124;-81
2022/04/07 07:50:10;;;;;;;5.50;1.38;;;;;;;15.74;39.04;98383.97;5033451;28;20483;-81
2022/04/07 07:52:36;;;;;;;5.68;1.27;;;;;;;16.18;38.01;98389.94;5033219;28;20476;-82
2022/04/07 07:55:03;;;;;;;4.40;1.30;;;;;;;16.40;37.82;98390.50;5033701;28;20034;-81
2022/04/07 07:57:29;;;;;;;3.80;1.08;;;;;;;16.27;37.49;98404.00;5035790;28;20036;-82
2022/04/07 07:59:56;;;;;;;6.88;1.45;;;;;;;16.28;37.45;98394.56;5034712;28;20057;-82
2022/04/07 08:02:22;;;;;;;3.97;2.08;;;;;;;16.19;37.52;98416.28;5035915;28;20032;-81
2022/04/07 08:04:48;;;;;;;4.57;1.15;;;;;;;16.23;37.61;98430.81;5034578;28;20021;-81
2022/04/07 08:07:14;;;;;;;4.72;1.30;;;;;;;16.43;37.18;98442.06;5034682;28;20026;-81
2022/04/07 08:09:40;;;;;;;6.55;1.23;;;;;;;16.54;36.96;98439.97;5034432;28;20068;-82
2022/04/07 08:12:06;;;;;;;4.97;1.05;;;;;;;16.67;36.84;98440.25;5034439;28;20025;-82
2022/04/07 08:14:32;;;;;;;6.72;2.22;;;;;;;16.37;37.01;98470.03;5034083;28;20104;-91
2022/04/07 08:16:58;;;;;;;8.38;1.42;;;;;;;16.89;36.08;98456.19;5034154;28;20124;-82
2022/04/07 08:19:25;;;;;;;4.45;1.13;;;;;;;16.73;36.01;98491.03;5034136;28;20030;-82
2022/04/07 08:21:50;;;;;;;8.77;2.80;;;;;;;16.88;35.46;98473.94;5035552;28;20030;-81
2022/04/07 08:24:18;;;;;;;4.68;1.20;;;;;;;17.17;35.60;98473.63;5035375;28;20388;-81
2022/04/07 08:26:44;;;;;;;6.22;1.25;;;;;;;16.78;36.39;98482.34;5035303;28;20061;-90
2022/04/07 08:29:09;;;;;;;5.13;1.52;;;;;;;17.12;35.79;98496.94;5035332;28;20582;-89
2022/04/07 08:31:35;;;;;;;5.53;1.17;;;;;;;16.54;36.32;98495.88;5033799;28;20546;-90
2022/04/07 08:34:01;;;;;;;2.30;0.90;;;;;;;17.18;35.57;98500.81;5034044;28;20083;-81
2022/04/07 08:36:26;;;;;;;8.55;2.67;;;;;;;17.29;35.57;98508.19;5035116;28;20499;-80
2022/04/07 08:38:52;;;;;;;10.70;1.58;;;;;;;16.90;36.10;98517.66;5034901;28;20095;-89
2022/04/07 08:41:18;;;;;;;4.65;1.77;;;;;;;16.95;35.84;98517.22;5033783;28;20162;-82
2022/04/07 08:43:44;;;;;;;7.22;1.50;;;;;;;17.17;35.45;98524.09;5033344;28;20036;-81
2022/04/07 08:46:13;;;;;;;4.22;0.98;;;;;;;17.13;35.80;98533.59;5035012;28;20025;-81
2022/04/07 08:48:43;;;;;;;3.78;0.80;;;;;;;17.14;35.73;98549.72;5035105;28;20099;-80
2022/04/07 08:51:11;;;;;;;3.97;0.90;;;;;;;17.00;35.95;98580.22;5034925;28;20118;-81
2022/04/07 08:53:40;;;;;;;10.10;2.55;;;;;;;17.16;35.60;98563.13;5034729;28;20028;-81
2022/04/07 08:56:07;;;;;;;5.43;1.10;;;;;;;17.44;35.00;98578.59;5033494;28;20427;-80
2022/04/07 08:58:33;;;;;;;5.07;1.00;;;;;;;17.38;35.58;98580.22;5033401;28;20116;-81
2022/04/07 09:01:00;;;;;;;6.25;1.45;;;;;;;17.82;34.56;98575.81;5034680;28;20017;-81
2022/04/07 09:03:26;;;;;;;7.72;1.13;;;;;;;17.61;34.68;98598.94;5033324;28;20376;-80
2022/04/07 09:05:58;;;;;;;5.40;1.75;;;;;;;17.42;34.51;98597.56;5034557;28;20021;-81
2022/04/07 09:08:32;;;;;;;8.38;1.48;;;;;;;18.08;33.80;98610.22;5033320;28;20051;-81
2022/04/07 09:11:00;;;;;;;2.38;1.08;;;;;;;18.06;33.67;98613.41;5034485;28;20125;-81
2022/04/07 09:13:31;;;;;;;4.53;1.00;;;;;;;17.60;33.87;98614.69;5031527;28;20117;-81
2022/04/07 09:15:58;;;;;;;3.53;1.30;;;;;;;17.64;33.99;98618.22;5032991;28;20112;-82
2022/04/07 09:18:24;;;;;;;6.90;1.58;;;;;;;17.90;33.63;98627.00;5034449;28;20026;-81
2022/04/07 09:20:50;;;;;;;4.57;1.30;;;;;;;17.80;33.38;98627.94;5033253;28;20672;-82
2022/04/07 09:23:17;;;;;;;13.45;2.22;;;;;;;18.22;33.16;98632.94;5032885;28;20025;-82
2022/04/07 09:25:50;;;;;;;3.00;0.90;;;;;;;17.98;33.19;98629.28;5033221;28;20029;-89
2022/04/07 09:28:27;;;;;;;6.57;1.52;;;;;;;17.82;32.90;98673.28;5032521;28;20481;-82
2022/04/07 09:30:53;;;;;;;5.32;1.50;;;;;;;17.74;33.08;98658.75;5033017;28;20018;-83
2022/04/07 09:33:23;;;;;;;10.88;2.50;;;;;;;17.97;33.14;98676.66;5032644;28;20025;-81
2022/04/07 09:36:19;;;;;;;8.27;1.77;;;;;;;18.14;32.91;98681.22;5034540;28;20019;-89
2022/04/07 09:38:52;;;;;;;3.47;1.00;;;;;;;18.05;33.13;98691.97;5032612;28;20033;-82
2022/04/07 09:41:22;;;;;;;4.63;1.15;;;;;;;17.86;33.29;98707.19;5032662;28;20049;-82
2022/04/07 09:43:58;;;;;;;4.28;1.67;;;;;;;18.01;33.16;98705.84;5032424;28;20108;-82
2022/04/07 09:46:26;;;;;;;9.15;1.85;;;;;;;18.02;33.09;98715.69;5033713;28;20102;-88
2022/04/07 09:49:24;;;;;;;5.47;1.75;;;;;;;17.83;33.18;98708.00;5032644;28;20042;-81
2022/04/07 09:51:51;;;;;;;4.65;1.48;;;;;;;18.09;33.69;98734.19;4999588;28;20037;-82
2022/04/07 09:54:17;;;;;;;7.25;2.30;;;;;;;17.90;33.53;98734.75;5032706;28;20053;-81
2022/04/07 09:56:46;;;;;;;4.30;1.23;;;;;;;18.08;33.25;98743.66;5019908;28;20047;-81
2022/04/07 09:59:16;;;;;;;6.72;1.73;;;;;;;17.97;33.11;98762.31;5017496;28;20071;-90
2022/04/07 10:01:43;;;;;;;9.30;1.10;;;;;;;18.21;32.37;98780.63;5017946;28;20100;-88
2022/04/07 10:04:09;;;;;;;6.35;1.55;;;;;;;17.73;32.20;98791.75;5014542;28;20021;-81
2022/04/07 10:06:37;;;;;;;3.85;1.13;;;;;;;18.36;31.49;98802.56;5029575;28;20365;-91
2022/04/07 10:09:08;;;;;;;3.70;1.08;;;;;;;17.95;31.68;98806.16;5030777;28;20060;-88
2022/04/07 10:11:33;;;;;;;6.43;1.50;;;;;;;18.21;31.77;98815.75;5034316;28;20026;-91
2022/04/07 10:14:00;;;;;;;3.10;1.17;;;;;;;18.24;31.66;98807.44;5033449;28;20026;-81
2022/04/07 10:16:27;;;;;;;7.43;1.65;;;;;;;18.46;31.63;98841.19;5033691;28;20025;-81
2022/04/07 10:19:09;;;;;;;5.75;1.55;;;;;;;17.94;31.52;98826.69;5031558;28;20026;-81
2022/04/07 10:22:12;;;;;;;7.28;1.65;;;;;;;18.08;31.12;98845.13;5032642;28;20076;-90
2022/04/07 10:24:54;;;;;;;5.25;1.42;;;;;;;18.91;30.85;98832.78;5033819;28;20092;-90
2022/04/07 10:27:23;;;;;;;3.90;1.58;;;;;;;18.70;30.68;98846.88;5027380;28;20025;-90
2022/04/07 10:30:21;;;;;;;15.77;2.83;;;;;;;18.94;30.05;98843.00;5032861;28;20472;-87
2022/04/07 10:32:49;;;;;;;4.85;1.25;;;;;;;19.26;29.86;98850.09;4992672;28;20038;-90
2022/04/07 10:35:35;;;;;;;7.28;1.70;;;;;;;19.03;29.62;98875.72;5014284;28;20018;-89
2022/04/07 10:38:06;;;;;;;7.65;1.58;;;;;;;19.07;29.60;98862.63;5012901;28;20388;-82
2022/04/07 10:40:39;;;;;;;5.18;1.20;;;;;;;17.43;33.79;98927.63;5012977;28;20503;-88
2022/04/07 10:43:09;;;;;;;4.50;1.52;;;;;;;16.62;36.19;98935.81;5012258;28;20053;-88
2022/04/07 10:45:40;;;;;;;4.10;1.00;;;;;;;15.88;37.66;98938.59;5015267;28;20025;-88
2022/04/07 10:48:29;;;;;;;7.70;2.38;;;;;;;15.64;38.44;98951.94;5033635;28;20025;-89
2022/04/07 10:50:59;;;;;;;11.38;1.90;;;;;;;16.56;36.53;98945.66;5032066;28;20032;-87
2022/04/07 10:53:24;;;;;;;;;;;;;;;16.75;36.39;98957.47;5033343;28;20415;-86
2022/04/07 10:55:55;;;;;;;11.52;2.20;;;;;;;17.09;35.42;98957.78;5032700;28;19920;-89
2022/04/07 10:58:21;;;;;;;5.28;1.58;;;;;;;17.06;35.14;98980.63;5033052;28;20500;-88
2022/04/07 11:00:47;;;;;;;11.30;1.80;;;;;;;17.63;34.64;98970.16;5032574;28;20021;-90
2022/04/07 11:03:18;;;;;;;7.97;1.40;;;;;;;17.80;34.47;98985.06;5032236;28;20503;-87
2022/04/07 11:06:00;;;;;;;8.23;1.45;;;;;;;18.07;34.15;98970.69;5032716;28;20033;-88
2022/04/07 11:08:30;;;;;;;33.65;6.18;;;;;;;17.62;33.46;98992.66;5033805;28;20033;-89
2022/04/07 11:10:56;;;;;;;4.55;1.48;;;;;;;17.74;32.70;98995.75;5032527;28;20034;-89
2022/04/07 11:13:45;;;;;;;10.02;2.38;;;;;;;16.92;31.46;99011.78;5033282;28;20105;-83
2022/04/07 11:16:28;;;;;;;8.85;1.58;;;;;;;17.43;30.78;99035.31;5032411;28;20022;-88
2022/04/07 11:19:12;;;;;;;8.63;2.78;;;;;;;17.19;30.75;99040.53;5031105;28;20040;-80
2022/04/07 11:21:50;;;;;;;2.83;0.75;;;;;;;17.08;29.97;99048.06;5031667;28;20381;-85
2022/04/07 11:24:24;;;;;;;2.50;1.40;;;;;;;16.36;30.38;99052.00;5031666;28;20025;-88
2022/04/07 11:26:53;;;;;;;2.50;0.88;;;;;;;17.20;28.98;99044.84;5031572;28;20083;-86
2022/04/07 11:29:32;;;;;;;4.22;1.20;;;;;;;17.54;28.47;99055.41;5031727;28;20037;-81
2022/04/07 11:32:09;;;;;;;10.27;1.48;;;;;;;17.62;28.82;99062.47;5033288;28;20040;-81
2022/04/07 11:34:41;;;;;;;7.47;1.55;;;;;;;18.17;28.63;99069.31;5031953;28;20117;-85